createdAt,value
2022-10-07T00:02:12.092Z,6.87
2022-10-07T00:04:46.200Z,6.86
2022-10-07T00:07:18.724Z,6.85
2022-10-07T00:09:51.212Z,6.84
2022-10-07T00:12:23.809Z,6.81
2022-10-07T00:14:56.347Z,6.81
2022-10-07T00:17:28.800Z,6.79
2022-10-07T00:20:01.541Z,6.77
2022-10-07T00:22:34.045Z,6.77
2022-10-07T00:25:06.845Z,6.78
2022-10-07T00:27:39.342Z,6.78
2022-10-07T00:30:12.760Z,6.80
2022-10-07T00:32:45.365Z,6.79
2022-10-07T00:35:17.855Z,6.78
2022-10-07T00:37:50.329Z,6.75
2022-10-07T00:40:22.864Z,6.71
2022-10-07T00:42:55.358Z,6.70
2022-10-07T00:45:28.341Z,6.69
2022-10-07T00:48:00.842Z,6.67
2022-10-07T00:50:33.506Z,6.65
2022-10-07T00:53:06.006Z,6.64
2022-10-07T00:55:38.509Z,6.59
2022-10-07T00:58:11.159Z,6.58
2022-10-07T01:00:43.644Z,6.54
2022-10-07T01:03:16.508Z,6.50
2022-10-07T01:05:49.009Z,6.51
2022-10-07T01:08:23.490Z,6.49
2022-10-07T01:11:28.007Z,6.47
2022-10-07T01:14:44.947Z,6.43
2022-10-07T01:17:44.232Z,6.38
2022-10-07T01:20:39.372Z,6.38
2022-10-07T01:23:32.721Z,6.35
2022-10-07T01:26:09.277Z,6.34
2022-10-07T01:28:53.964Z,6.38
2022-10-07T01:31:41.688Z,6.38
2022-10-07T01:34:17.444Z,6.38
2022-10-07T01:36:56.778Z,6.45
2022-10-07T01:39:40.617Z,6.45
2022-10-07T01:42:15.491Z,6.43
2022-10-07T01:44:54.520Z,6.46
2022-10-07T01:47:28.088Z,6.47
2022-10-07T01:50:00.584Z,6.45
2022-10-07T01:52:43.081Z,6.45
2022-10-07T01:55:58.740Z,6.43
2022-10-07T01:59:08.106Z,6.41
2022-10-07T02:02:01.496Z,6.43
2022-10-07T02:05:09.211Z,6.40
2022-10-07T02:08:06.742Z,6.37
2022-10-07T02:11:03.614Z,6.32
2022-10-07T02:14:14.516Z,6.29
2022-10-07T02:16:51.684Z,6.27
2022-10-07T02:19:39.474Z,6.25
2022-10-07T02:22:17.240Z,6.25
2022-10-07T02:25:00.360Z,6.24
2022-10-07T02:27:39.472Z,6.23
2022-10-07T02:30:18.444Z,6.21
2022-10-07T02:32:57.288Z,6.19
2022-10-07T02:35:59.501Z,6.17
2022-10-07T02:38:32.286Z,6.18
2022-10-07T02:41:41.908Z,6.17
2022-10-07T02:44:26.070Z,6.13
2022-10-07T02:47:08.697Z,6.09
2022-10-07T02:49:43.505Z,6.02
2022-10-07T02:52:20.124Z,5.97
2022-10-07T02:54:59.542Z,5.96
2022-10-07T02:57:39.547Z,5.98
2022-10-07T03:00:14.419Z,5.97
2022-10-07T03:03:00.397Z,5.95
2022-10-07T03:05:35.283Z,5.97
2022-10-07T03:08:10.889Z,5.94
2022-10-07T03:10:43.793Z,5.92
2022-10-07T03:13:16.337Z,5.90
2022-10-07T03:15:48.934Z,5.88
2022-10-07T03:18:28.234Z,5.85
2022-10-07T03:21:00.993Z,5.83
2022-10-07T03:23:33.472Z,5.81
2022-10-07T03:26:05.976Z,5.83
2022-10-07T03:28:38.465Z,5.80
2022-10-07T03:31:13.994Z,5.77
2022-10-07T03:33:46.498Z,5.75
2022-10-07T03:36:19.422Z,5.77
2022-10-07T03:38:52.141Z,5.77
2022-10-07T03:41:24.718Z,5.77
2022-10-07T03:43:59.346Z,5.78
2022-10-07T03:46:31.966Z,5.76
2022-10-07T03:49:04.773Z,5.80
2022-10-07T03:51:37.441Z,5.77
2022-10-07T03:54:10.105Z,5.77
2022-10-07T03:56:42.580Z,5.74
2022-10-07T03:59:15.041Z,5.73
2022-10-07T04:01:47.882Z,5.70
2022-10-07T04:04:20.546Z,5.72
2022-10-07T04:06:53.040Z,5.67
2022-10-07T04:09:25.581Z,5.71
2022-10-07T04:11:58.099Z,5.68
2022-10-07T04:14:30.660Z,5.68
2022-10-07T04:17:05.889Z,5.63
2022-10-07T04:19:38.440Z,5.61
2022-10-07T04:22:10.925Z,5.59
2022-10-07T04:24:43.394Z,5.52
2022-10-07T04:27:33.925Z,5.49
2022-10-07T04:30:09.761Z,5.47
2022-10-07T04:32:42.255Z,5.44
2022-10-07T04:35:15.021Z,5.43
2022-10-07T04:37:53.828Z,5.44
2022-10-07T04:40:27.466Z,5.43
2022-10-07T04:43:18.535Z,5.42
2022-10-07T04:46:01.493Z,5.43
2022-10-07T04:48:35.810Z,5.41
2022-10-07T04:51:09.563Z,5.40
2022-10-07T04:53:42.069Z,5.37
2022-10-07T04:56:14.514Z,5.34
2022-10-07T04:58:47.075Z,5.33
2022-10-07T05:01:19.639Z,5.32
2022-10-07T05:03:52.300Z,5.35
2022-10-07T05:06:24.956Z,5.32
2022-10-07T05:08:57.501Z,5.32
2022-10-07T05:11:30.050Z,5.30
2022-10-07T05:14:02.556Z,5.28
2022-10-07T05:16:35.106Z,5.28
2022-10-07T05:19:07.872Z,5.34
2022-10-07T05:21:40.481Z,5.33
2022-10-07T05:24:12.990Z,5.33
2022-10-07T05:26:45.485Z,5.32
2022-10-07T05:29:17.958Z,5.31
2022-10-07T05:31:50.705Z,5.33
2022-10-07T05:34:23.325Z,5.34
2022-10-07T05:36:55.786Z,5.33
2022-10-07T05:39:28.294Z,5.31
2022-10-07T05:42:01.830Z,5.36
2022-10-07T05:44:37.820Z,5.38
2022-10-07T05:47:10.357Z,5.42
2022-10-07T05:49:43.114Z,5.45
2022-10-07T05:52:15.643Z,5.46
2022-10-07T05:54:48.131Z,5.48
2022-10-07T05:57:20.597Z,5.52
2022-10-07T05:59:53.235Z,5.54
2022-10-07T06:02:26.096Z,5.53
2022-10-07T06:04:58.603Z,5.57
2022-10-07T06:07:31.106Z,5.60
2022-10-07T06:10:22.474Z,5.63
2022-10-07T06:13:07.390Z,5.69
2022-10-07T06:15:39.910Z,5.70
2022-10-07T06:18:12.492Z,5.75
2022-10-07T06:21:12.505Z,5.78
2022-10-07T06:23:51.880Z,5.83
2022-10-07T06:26:24.532Z,5.85
2022-10-07T06:28:57.004Z,5.91
2022-10-07T06:31:29.583Z,5.96
2022-10-07T06:34:02.157Z,6.02
2022-10-07T06:36:34.679Z,6.06
2022-10-07T06:39:07.191Z,6.11
2022-10-07T06:41:39.711Z,6.19
2022-10-07T06:44:12.206Z,6.26
2022-10-07T06:46:44.662Z,6.37
2022-10-07T06:49:17.156Z,6.44
2022-10-07T06:51:49.609Z,6.48
2022-10-07T06:54:22.209Z,6.55
2022-10-07T06:56:54.713Z,6.66
2022-10-07T06:59:27.238Z,6.80
2022-10-07T07:01:59.783Z,6.90
2022-10-07T07:04:32.314Z,6.95
2022-10-07T07:07:05.327Z,7.04
2022-10-07T07:09:37.769Z,7.12
2022-10-07T07:12:10.244Z,7.19
2022-10-07T07:14:44.951Z,7.25
2022-10-07T07:17:18.968Z,7.34
2022-10-07T07:19:51.506Z,7.41
2022-10-07T07:22:24.028Z,7.48
2022-10-07T07:24:56.524Z,7.54
2022-10-07T07:27:29.241Z,7.63
2022-10-07T07:30:02.866Z,7.71
2022-10-07T07:32:35.407Z,7.82
2022-10-07T07:35:09.084Z,7.92
2022-10-07T07:37:45.433Z,8.01
2022-10-07T07:40:20.080Z,8.14
2022-10-07T07:42:55.628Z,8.23
2022-10-07T07:45:29.093Z,8.32
2022-10-07T07:48:01.582Z,8.42
2022-10-07T07:50:34.602Z,8.47
2022-10-07T07:53:07.110Z,8.56
2022-10-07T07:55:39.586Z,8.62
2022-10-07T07:58:12.150Z,8.72
2022-10-07T08:00:44.661Z,8.81
2022-10-07T08:03:17.186Z,8.91
2022-10-07T08:05:49.767Z,9.01
2022-10-07T08:08:22.649Z,9.10
2022-10-07T08:10:55.153Z,9.19
2022-10-07T08:13:27.686Z,9.27
2022-10-07T08:16:00.296Z,9.38
2022-10-07T08:18:33.117Z,9.52
2022-10-07T08:21:07.744Z,9.63
2022-10-07T08:23:41.187Z,9.77
2022-10-07T08:26:14.945Z,9.87
2022-10-07T08:28:48.997Z,9.99
2022-10-07T08:31:22.829Z,10.03
2022-10-07T08:34:00.201Z,10.15
2022-10-07T08:36:33.704Z,10.22
2022-10-07T08:39:07.334Z,10.32
2022-10-07T08:41:58.978Z,10.42
2022-10-07T08:44:41.051Z,10.57
2022-10-07T08:47:47.763Z,10.61
2022-10-07T08:50:46.933Z,10.67
2022-10-07T08:53:30.421Z,10.78
2022-10-07T08:56:17.592Z,10.87
2022-10-07T08:59:12.079Z,10.96
2022-10-07T09:02:00.168Z,11.03
2022-10-07T09:04:54.716Z,11.11
2022-10-07T09:07:48.014Z,11.18
2022-10-07T09:10:32.917Z,11.27
2022-10-07T09:13:24.617Z,11.33
2022-10-07T09:16:13.842Z,11.51
2022-10-07T09:18:53.989Z,11.59
2022-10-07T09:21:43.674Z,11.70
2022-10-07T09:24:24.550Z,11.85
2022-10-07T09:27:01.344Z,11.96
2022-10-07T09:29:33.903Z,12.08
2022-10-07T09:32:06.431Z,12.21
2022-10-07T09:34:38.938Z,12.31
2022-10-07T09:37:27.453Z,12.43
2022-10-07T09:40:27.430Z,12.49
2022-10-07T09:43:01.875Z,12.61
2022-10-07T09:45:34.978Z,12.70
2022-10-07T09:48:21.349Z,12.68
2022-10-07T09:51:24.999Z,12.71
2022-10-07T09:54:16.869Z,12.81
2022-10-07T09:56:59.518Z,12.91
2022-10-07T09:59:36.070Z,13.08
2022-10-07T10:02:15.105Z,13.16
2022-10-07T10:04:54.794Z,13.25
2022-10-07T10:07:33.060Z,13.19
2022-10-07T10:10:21.401Z,13.26
2022-10-07T10:12:58.167Z,13.36
2022-10-07T10:15:39.461Z,13.44
2022-10-07T10:18:35.165Z,13.50
2022-10-07T10:21:29.829Z,13.57
2022-10-07T10:24:15.311Z,13.69
2022-10-07T10:27:17.173Z,13.68
2022-10-07T10:30:05.557Z,13.62
2022-10-07T10:33:01.029Z,13.74
2022-10-07T10:36:06.034Z,13.87
2022-10-07T10:39:02.531Z,13.99
2022-10-07T10:42:00.049Z,14.09
2022-10-07T10:44:44.301Z,14.16
2022-10-07T10:48:09.673Z,14.28
2022-10-07T10:51:08.176Z,14.35
2022-10-07T10:54:05.214Z,14.37
2022-10-07T10:57:14.798Z,14.37
2022-10-07T11:00:12.817Z,14.43
2022-10-07T11:03:26.621Z,14.46
2022-10-07T11:06:05.813Z,14.60
2022-10-07T11:08:38.984Z,14.68
2022-10-07T11:11:22.729Z,14.69
2022-10-07T11:14:04.634Z,14.74
2022-10-07T11:16:54.039Z,14.72
2022-10-07T11:19:43.149Z,14.80
2022-10-07T11:22:32.828Z,14.86
2022-10-07T11:25:30.464Z,14.97
2022-10-07T11:28:21.236Z,14.93
2022-10-07T11:31:27.164Z,14.95
2022-10-07T11:34:21.710Z,15.02
2022-10-07T11:37:09.788Z,15.11
2022-10-07T11:39:42.702Z,15.24
2022-10-07T11:42:26.101Z,15.35
2022-10-07T11:45:06.800Z,15.38
2022-10-07T11:47:56.190Z,15.36
2022-10-07T11:50:41.135Z,15.38
2022-10-07T11:53:28.415Z,15.35
2022-10-07T11:56:16.343Z,15.30
2022-10-07T11:59:03.091Z,15.34
2022-10-07T12:01:35.547Z,15.43
2022-10-07T12:04:24.761Z,15.50
2022-10-07T12:07:34.692Z,15.56
2022-10-07T12:10:23.129Z,15.61
2022-10-07T12:13:01.715Z,15.69
2022-10-07T12:15:43.725Z,15.61
2022-10-07T12:18:18.936Z,15.60
2022-10-07T12:20:51.388Z,15.55
2022-10-07T12:23:25.801Z,15.55
2022-10-07T12:26:30.535Z,15.45
2022-10-07T12:29:04.390Z,15.53
2022-10-07T12:31:42.872Z,15.61
2022-10-07T12:34:39.291Z,15.80
2022-10-07T12:37:39.917Z,15.93
2022-10-07T12:40:29.784Z,15.83
2022-10-07T12:43:37.487Z,16.02
2022-10-07T12:46:15.271Z,16.10
2022-10-07T12:49:30.252Z,16.08
2022-10-07T12:52:41.104Z,16.16
2022-10-07T12:55:28.542Z,16.25
2022-10-07T12:58:45.914Z,16.27
2022-10-07T13:01:39.078Z,16.40
2022-10-07T13:05:08.616Z,16.36
2022-10-07T13:09:02.806Z,16.38
2022-10-07T13:12:24.475Z,16.42
2022-10-07T13:15:41.384Z,16.49
2022-10-07T13:18:26.503Z,16.53
2022-10-07T13:21:30.733Z,16.56
2022-10-07T13:24:03.742Z,16.56
2022-10-07T13:26:37.276Z,16.59
2022-10-07T13:29:26.936Z,16.59
2022-10-07T13:32:09.966Z,16.61
2022-10-07T13:34:46.411Z,16.55
2022-10-07T13:37:38.062Z,16.58
2022-10-07T13:40:35.541Z,16.56
2022-10-07T13:43:09.184Z,16.47
2022-10-07T13:45:45.877Z,16.45
2022-10-07T13:48:34.708Z,16.40
2022-10-07T13:51:07.899Z,16.51
2022-10-07T13:53:41.516Z,16.54
2022-10-07T13:56:25.200Z,16.53
2022-10-07T13:58:59.653Z,16.57
2022-10-07T14:01:38.824Z,16.69
2022-10-07T14:04:25.411Z,16.62
2022-10-07T14:07:13.202Z,16.67
2022-10-07T14:10:01.921Z,16.65
2022-10-07T14:12:46.127Z,16.72
2022-10-07T14:15:27.100Z,16.67
2022-10-07T14:18:11.262Z,16.71
2022-10-07T14:20:55.245Z,16.76
2022-10-07T14:23:35.185Z,16.80
2022-10-07T14:26:11.025Z,16.88
2022-10-07T14:28:46.898Z,16.92
2022-10-07T14:31:39.766Z,16.94
2022-10-07T14:34:38.928Z,16.95
2022-10-07T14:37:17.298Z,16.89
2022-10-07T14:39:53.035Z,16.87
2022-10-07T14:42:32.216Z,16.92
2022-10-07T14:45:09.594Z,16.87
2022-10-07T14:47:44.260Z,16.85
2022-10-07T14:50:19.572Z,16.79
2022-10-07T14:52:52.929Z,16.88
2022-10-07T14:55:29.133Z,16.91
2022-10-07T14:58:01.645Z,16.95
2022-10-07T15:00:38.799Z,16.90
2022-10-07T15:03:12.264Z,16.83
2022-10-07T15:05:44.777Z,16.87
2022-10-07T15:08:17.255Z,16.75
2022-10-07T15:10:49.718Z,16.69
2022-10-07T15:13:22.243Z,16.70
2022-10-07T15:15:54.738Z,16.72
2022-10-07T15:18:27.206Z,16.68
2022-10-07T15:20:59.716Z,16.70
2022-10-07T15:23:32.218Z,16.71
2022-10-07T15:26:05.958Z,16.70
2022-10-07T15:28:38.511Z,16.68
2022-10-07T15:31:11.150Z,16.63
2022-10-07T15:33:44.510Z,16.53
2022-10-07T15:36:17.829Z,16.43
2022-10-07T15:38:50.580Z,16.37
2022-10-07T15:41:32.493Z,16.29
2022-10-07T15:44:16.142Z,16.25
2022-10-07T15:46:53.752Z,16.16
2022-10-07T15:49:26.470Z,16.07
2022-10-07T15:51:59.422Z,16.07
2022-10-07T15:54:32.624Z,16.02
2022-10-07T15:57:05.689Z,15.90
2022-10-07T15:59:38.332Z,15.82
2022-10-07T16:02:21.378Z,15.73
2022-10-07T16:04:54.149Z,15.70
2022-10-07T16:07:30.183Z,15.75
2022-10-07T16:10:02.801Z,15.85
2022-10-07T16:12:35.288Z,15.80
2022-10-07T16:15:08.132Z,15.73
2022-10-07T16:17:40.594Z,15.67
2022-10-07T16:20:15.359Z,15.50
2022-10-07T16:22:48.252Z,15.42
2022-10-07T16:25:20.976Z,15.21
2022-10-07T16:28:12.263Z,15.06
2022-10-07T16:30:49.964Z,14.79
2022-10-07T16:33:22.721Z,14.65
2022-10-07T16:35:58.388Z,14.55
2022-10-07T16:38:31.617Z,14.39
2022-10-07T16:41:04.369Z,14.28
2022-10-07T16:43:37.002Z,14.11
2022-10-07T16:46:15.608Z,13.99
2022-10-07T16:48:50.292Z,13.86
2022-10-07T16:51:35.470Z,13.69
2022-10-07T16:54:17.013Z,13.51
2022-10-07T16:56:52.881Z,13.38
2022-10-07T16:59:26.345Z,13.25
2022-10-07T17:02:02.500Z,13.10
2022-10-07T17:04:35.571Z,12.98
2022-10-07T17:07:08.208Z,12.84
2022-10-07T17:09:41.018Z,12.74
2022-10-07T17:12:16.276Z,12.66
2022-10-07T17:14:49.001Z,12.57
2022-10-07T17:17:21.694Z,12.48
2022-10-07T17:19:54.296Z,12.38
2022-10-07T17:22:26.809Z,12.26
2022-10-07T17:24:59.812Z,12.18
2022-10-07T17:27:32.319Z,12.07
2022-10-07T17:30:05.625Z,11.99
2022-10-07T17:32:38.143Z,11.91
2022-10-07T17:35:10.659Z,11.84
2022-10-07T17:37:43.339Z,11.78
2022-10-07T17:40:16.490Z,11.70
2022-10-07T17:42:48.993Z,11.63
2022-10-07T17:45:22.301Z,11.58
2022-10-07T17:47:57.477Z,11.52
2022-10-07T17:50:31.759Z,11.49
2022-10-07T17:53:05.363Z,11.45
2022-10-07T17:55:40.545Z,11.41
2022-10-07T17:58:13.130Z,11.38
2022-10-07T18:00:45.679Z,11.34
2022-10-07T18:03:18.314Z,11.31
2022-10-07T18:05:53.907Z,11.27
2022-10-07T18:08:26.872Z,11.23
2022-10-07T18:10:59.716Z,11.22
2022-10-07T18:13:51.800Z,11.19
2022-10-07T18:16:24.381Z,11.17
2022-10-07T18:18:57.477Z,11.17
2022-10-07T18:21:31.549Z,11.16
2022-10-07T18:24:08.153Z,11.12
2022-10-07T18:26:42.564Z,11.10
2022-10-07T18:29:17.260Z,11.06
2022-10-07T18:31:49.919Z,11.04
2022-10-07T18:34:23.486Z,11.02
2022-10-07T18:36:57.279Z,10.99
2022-10-07T18:39:30.792Z,10.97
2022-10-07T18:42:04.456Z,10.97
2022-10-07T18:44:37.008Z,10.93
2022-10-07T18:47:09.501Z,10.92
2022-10-07T18:49:42.003Z,10.86
2022-10-07T18:52:14.609Z,10.83
2022-10-07T18:54:47.123Z,10.79
2022-10-07T18:57:20.938Z,10.75
2022-10-07T18:59:53.458Z,10.72
2022-10-07T19:02:26.124Z,10.72
2022-10-07T19:04:58.711Z,10.73
2022-10-07T19:07:31.463Z,10.73
2022-10-07T19:10:04.465Z,10.72
2022-10-07T19:12:55.493Z,10.72
2022-10-07T19:15:27.990Z,10.68
2022-10-07T19:18:00.787Z,10.68
2022-10-07T19:20:36.533Z,10.63
2022-10-07T19:23:11.049Z,10.61
2022-10-07T19:25:46.564Z,10.61
2022-10-07T19:28:19.838Z,10.62
2022-10-07T19:30:55.117Z,10.64
2022-10-07T19:33:27.709Z,10.67
2022-10-07T19:36:02.456Z,10.68
2022-10-07T19:38:34.991Z,10.67
2022-10-07T19:41:08.405Z,10.64
2022-10-07T19:43:42.875Z,10.64
2022-10-07T19:46:17.053Z,10.65
2022-10-07T19:48:57.091Z,10.63
2022-10-07T19:51:36.537Z,10.60
2022-10-07T19:54:10.734Z,10.57
2022-10-07T19:56:44.435Z,10.56
2022-10-07T19:59:17.052Z,10.56
2022-10-07T20:01:51.821Z,10.55
2022-10-07T20:04:24.456Z,10.53
2022-10-07T20:06:58.725Z,10.50
2022-10-07T20:09:31.213Z,10.46
2022-10-07T20:12:04.772Z,10.45
2022-10-07T20:14:39.394Z,10.44
2022-10-07T20:17:11.970Z,10.48
2022-10-07T20:19:44.487Z,10.49
2022-10-07T20:22:17.008Z,10.51
2022-10-07T20:24:49.453Z,10.46
2022-10-07T20:27:21.960Z,10.44
2022-10-07T20:29:57.353Z,10.43
2022-10-07T20:32:33.951Z,10.40
2022-10-07T20:35:09.775Z,10.39
2022-10-07T20:37:42.242Z,10.35
2022-10-07T20:40:33.487Z,10.36
2022-10-07T20:43:05.937Z,10.34
2022-10-07T20:45:56.231Z,10.31
2022-10-07T20:48:31.340Z,10.32
2022-10-07T20:51:08.808Z,10.33
2022-10-07T20:53:41.267Z,10.30
2022-10-07T20:56:13.867Z,10.29
2022-10-07T20:58:46.419Z,10.28
2022-10-07T21:01:19.004Z,10.23
2022-10-07T21:03:51.520Z,10.21
2022-10-07T21:06:24.451Z,10.25
2022-10-07T21:08:58.018Z,10.27
2022-10-07T21:11:30.587Z,10.24
2022-10-07T21:14:03.319Z,10.24
2022-10-07T21:16:36.353Z,10.19
2022-10-07T21:19:09.363Z,10.18
2022-10-07T21:21:41.970Z,10.17
2022-10-07T21:24:14.542Z,10.14
2022-10-07T21:26:47.397Z,10.16
2022-10-07T21:29:19.946Z,10.14
2022-10-07T21:31:53.271Z,10.11
2022-10-07T21:34:26.012Z,10.09
2022-10-07T21:36:59.047Z,10.07
2022-10-07T21:39:31.771Z,10.00
2022-10-07T21:42:04.332Z,9.94
2022-10-07T21:44:36.769Z,9.89
2022-10-07T21:47:09.283Z,9.86
2022-10-07T21:49:41.775Z,9.82
2022-10-07T21:52:14.483Z,9.81
2022-10-07T21:54:47.025Z,9.80
2022-10-07T21:57:20.068Z,9.81
2022-10-07T21:59:53.722Z,9.78
2022-10-07T22:02:29.252Z,9.79
2022-10-07T22:05:01.829Z,9.77
2022-10-07T22:07:53.162Z,9.71
2022-10-07T22:10:25.623Z,9.66
2022-10-07T22:12:58.102Z,9.62
2022-10-07T22:15:30.679Z,9.59
2022-10-07T22:18:04.244Z,9.57
2022-10-07T22:20:38.819Z,9.59
2022-10-07T22:23:11.309Z,9.59
2022-10-07T22:25:44.321Z,9.66
2022-10-07T22:28:16.875Z,9.72
2022-10-07T22:30:49.449Z,9.85
2022-10-07T22:33:21.946Z,9.93
2022-10-07T22:35:54.443Z,10.07
2022-10-07T22:38:28.677Z,10.15
2022-10-07T22:41:10.548Z,10.23
2022-10-07T22:43:46.047Z,10.34
2022-10-07T22:46:25.978Z,10.44
2022-10-07T22:48:58.966Z,10.54
2022-10-07T22:51:31.421Z,10.63
2022-10-07T22:54:04.259Z,10.68
2022-10-07T22:56:36.875Z,10.75
2022-10-07T22:59:10.903Z,10.79
2022-10-07T23:01:43.340Z,10.84
2022-10-07T23:04:15.981Z,10.88
2022-10-07T23:06:48.635Z,10.91
2022-10-07T23:09:21.130Z,10.93
2022-10-07T23:11:53.593Z,10.95
2022-10-07T23:14:26.094Z,10.94
2022-10-07T23:16:58.790Z,10.96
2022-10-07T23:19:31.317Z,10.99
2022-10-07T23:22:05.440Z,11.03
2022-10-07T23:24:38.389Z,11.07
2022-10-07T23:27:10.892Z,11.07
2022-10-07T23:29:43.379Z,11.09
2022-10-07T23:32:15.877Z,11.13
2022-10-07T23:34:48.374Z,11.14
2022-10-07T23:37:20.857Z,11.13
2022-10-07T23:39:53.335Z,11.14
2022-10-07T23:42:25.869Z,11.14
2022-10-07T23:45:03.164Z,11.13
2022-10-07T23:47:35.696Z,11.11
2022-10-07T23:50:09.424Z,11.14
2022-10-07T23:52:42.391Z,11.05
2022-10-07T23:55:14.935Z,11.00
2022-10-07T23:57:47.402Z,10.89
